createdAt,value
2023-01-13T00:02:02.969Z,55.97
2023-01-13T00:05:05.769Z,54.47
2023-01-13T00:08:10.050Z,44.13
2023-01-13T00:11:13.689Z,40.42
2023-01-13T00:14:18.641Z,36.83
2023-01-13T00:17:23.224Z,41.67
2023-01-13T00:20:25.437Z,35.92
2023-01-13T00:23:29.278Z,43.50
2023-01-13T00:26:33.688Z,41.20
2023-01-13T00:29:39.263Z,43.63
2023-01-13T00:32:41.476Z,30.88
2023-01-13T00:35:43.681Z,42.47
2023-01-13T00:38:47.676Z,32.67
2023-01-13T00:42:09.691Z,37.50
2023-01-13T00:45:11.944Z,27.07
2023-01-13T00:48:14.984Z,26.80
2023-01-13T00:51:19.442Z,31.60
2023-01-13T00:54:22.311Z,39.15
2023-01-13T00:57:24.587Z,33.60
2023-01-13T01:00:26.936Z,36.67
2023-01-13T01:03:29.967Z,27.60
2023-01-13T01:06:32.299Z,34.42
2023-01-13T01:09:35.991Z,35.42
2023-01-13T01:12:38.363Z,27.50
2023-01-13T01:15:44.175Z,29.10
2023-01-13T01:18:48.613Z,29.52
2023-01-13T01:21:55.030Z,35.22
2023-01-13T01:24:58.839Z,38.13
2023-01-13T01:28:04.983Z,37.35
2023-01-13T01:31:13.942Z,30.60
2023-01-13T01:34:16.903Z,18.35
2023-01-13T01:37:19.099Z,23.45
2023-01-13T01:40:21.813Z,19.23
2023-01-13T01:44:00.122Z,28.63
2023-01-13T01:47:02.515Z,26.10
2023-01-13T01:50:06.266Z,28.85
2023-01-13T01:53:17.670Z,26.45
2023-01-13T01:56:21.035Z,21.73
2023-01-13T01:59:25.177Z,26.05
2023-01-13T02:02:34.024Z,23.37
2023-01-13T02:05:39.276Z,22.08
2023-01-13T02:08:41.575Z,29.30
2023-01-13T02:12:02.521Z,22.77
2023-01-13T02:15:09.883Z,22.50
2023-01-13T02:18:13.769Z,26.53
2023-01-13T02:21:38.341Z,31.83
2023-01-13T02:25:13.173Z,33.17
2023-01-13T02:29:06.889Z,30.23
2023-01-13T02:32:19.472Z,16.17
2023-01-13T02:35:30.076Z,23.03
2023-01-13T02:38:41.892Z,29.63
2023-01-13T02:42:13.056Z,32.45
2023-01-13T02:45:18.764Z,16.67
2023-01-13T02:48:24.100Z,24.42
2023-01-13T02:51:29.105Z,23.10
2023-01-13T02:54:35.911Z,26.70
2023-01-13T02:57:40.608Z,30.40
2023-01-13T03:00:44.526Z,29.65
2023-01-13T03:03:52.053Z,29.45
2023-01-13T03:07:07.756Z,29.67
2023-01-13T03:10:39.232Z,27.33
2023-01-13T03:14:13.415Z,31.63
2023-01-13T03:18:00.943Z,27.00
2023-01-13T03:21:15.049Z,26.33
2023-01-13T03:24:20.962Z,31.77
2023-01-13T03:27:33.945Z,23.00
2023-01-13T03:30:50.152Z,33.92
2023-01-13T03:34:16.031Z,29.13
2023-01-13T03:37:25.755Z,30.98
2023-01-13T03:40:35.375Z,31.13
2023-01-13T03:44:02.949Z,22.02
2023-01-13T03:47:12.573Z,26.77
2023-01-13T03:50:20.122Z,26.63
2023-01-13T03:53:32.582Z,30.15
2023-01-13T03:56:50.261Z,32.10
2023-01-13T03:59:59.282Z,18.20
2023-01-13T04:03:09.367Z,28.42
2023-01-13T04:06:23.520Z,31.10
2023-01-13T04:09:50.035Z,31.00
2023-01-13T04:13:07.059Z,27.07
2023-01-13T04:16:11.840Z,27.30
2023-01-13T04:19:14.316Z,23.70
2023-01-13T04:22:23.207Z,25.70
2023-01-13T04:25:25.617Z,40.70
2023-01-13T04:28:28.100Z,26.60
2023-01-13T04:31:30.384Z,20.58
2023-01-13T04:34:33.798Z,24.85
2023-01-13T04:37:37.246Z,19.40
2023-01-13T04:40:40.395Z,26.27
2023-01-13T04:43:42.607Z,31.83
2023-01-13T04:46:44.994Z,30.50
2023-01-13T04:49:48.208Z,33.17
2023-01-13T04:52:51.379Z,27.80
2023-01-13T04:55:55.057Z,27.73
2023-01-13T04:58:59.428Z,18.20
2023-01-13T05:02:01.959Z,28.05
2023-01-13T05:05:05.129Z,27.77
2023-01-13T05:08:09.097Z,26.92
2023-01-13T05:11:33.241Z,28.25
2023-01-13T05:14:54.069Z,32.17
2023-01-13T05:17:56.378Z,26.45
2023-01-13T05:21:01.553Z,31.05
2023-01-13T05:24:22.504Z,29.77
2023-01-13T05:27:24.940Z,22.27
2023-01-13T05:30:30.303Z,30.67
2023-01-13T05:33:34.929Z,30.65
2023-01-13T05:36:40.667Z,26.70
2023-01-13T05:40:02.000Z,25.13
2023-01-13T05:43:25.208Z,26.08
2023-01-13T05:46:28.959Z,28.83
2023-01-13T05:49:31.581Z,23.33
2023-01-13T05:52:34.002Z,30.90
2023-01-13T05:55:39.127Z,17.23
2023-01-13T05:58:41.376Z,23.52
2023-01-13T06:01:44.432Z,25.53
2023-01-13T06:04:46.804Z,23.48
2023-01-13T06:07:49.085Z,22.45
2023-01-13T06:10:51.354Z,29.17
2023-01-13T06:13:54.291Z,25.30
2023-01-13T06:16:56.665Z,19.57
2023-01-13T06:19:58.956Z,18.42
2023-01-13T06:23:01.847Z,22.35
2023-01-13T06:26:20.080Z,22.08
2023-01-13T06:29:22.371Z,21.15
2023-01-13T06:32:38.940Z,18.60
2023-01-13T06:35:54.320Z,13.70
2023-01-13T06:39:01.872Z,20.75
2023-01-13T06:42:23.472Z,23.38
2023-01-13T06:45:29.881Z,15.73
2023-01-13T06:48:35.674Z,27.93
2023-01-13T06:51:41.761Z,12.90
2023-01-13T06:54:45.297Z,14.68
2023-01-13T06:57:52.755Z,22.40
2023-01-13T07:01:00.021Z,20.92
2023-01-13T07:04:05.269Z,17.63
2023-01-13T07:07:18.205Z,15.32
2023-01-13T07:10:24.619Z,25.20
2023-01-13T07:13:50.319Z,14.48
2023-01-13T07:16:56.287Z,15.23
2023-01-13T07:19:59.127Z,17.93
2023-01-13T07:23:01.410Z,20.23
2023-01-13T07:26:04.593Z,14.70
2023-01-13T07:29:08.093Z,21.83
2023-01-13T07:32:15.717Z,26.17
2023-01-13T07:35:23.401Z,19.20
2023-01-13T07:38:27.840Z,20.63
2023-01-13T07:41:51.730Z,21.77
2023-01-13T07:44:56.339Z,26.05
2023-01-13T07:47:58.710Z,21.88
2023-01-13T07:51:07.436Z,23.30
2023-01-13T07:54:09.762Z,10.07
2023-01-13T07:57:13.776Z,24.85
2023-01-13T08:00:21.284Z,13.98
2023-01-13T08:03:24.128Z,25.83
2023-01-13T08:06:26.952Z,16.27
2023-01-13T08:09:30.667Z,12.43
2023-01-13T08:12:57.163Z,13.35
2023-01-13T08:16:08.896Z,17.88
2023-01-13T08:19:12.313Z,15.73
2023-01-13T08:22:14.730Z,21.73
2023-01-13T08:25:19.880Z,16.83
2023-01-13T08:28:24.172Z,15.18
2023-01-13T08:31:26.552Z,13.20
2023-01-13T08:34:30.944Z,14.27
2023-01-13T08:37:39.509Z,17.67
2023-01-13T08:40:42.440Z,16.48
2023-01-13T08:43:46.114Z,19.85
2023-01-13T08:46:54.237Z,23.50
2023-01-13T08:49:56.723Z,18.23
2023-01-13T08:53:00.968Z,16.43
2023-01-13T08:56:12.708Z,15.65
2023-01-13T08:59:17.349Z,19.70
2023-01-13T09:02:22.203Z,20.17
2023-01-13T09:05:26.385Z,18.67
2023-01-13T09:08:28.799Z,10.67
2023-01-13T09:11:54.530Z,27.42
2023-01-13T09:14:59.146Z,15.70
2023-01-13T09:18:06.987Z,15.05
2023-01-13T09:21:12.354Z,19.75
2023-01-13T09:24:14.798Z,17.70
2023-01-13T09:27:17.145Z,16.33
2023-01-13T09:30:20.821Z,13.57
2023-01-13T09:33:43.038Z,14.73
2023-01-13T09:37:04.806Z,12.15
2023-01-13T09:40:18.502Z,15.17
2023-01-13T09:43:46.060Z,14.52
2023-01-13T09:46:57.027Z,22.08
2023-01-13T09:50:22.194Z,18.05
2023-01-13T09:53:39.079Z,17.13
2023-01-13T09:56:42.671Z,18.00
2023-01-13T09:59:45.691Z,26.17
2023-01-13T10:03:01.874Z,15.65
2023-01-13T10:06:10.880Z,18.20
2023-01-13T10:09:51.486Z,19.17
2023-01-13T10:13:14.103Z,21.10
2023-01-13T10:16:42.016Z,20.80
2023-01-13T10:20:17.771Z,13.65
2023-01-13T10:23:44.825Z,13.80
2023-01-13T10:26:55.094Z,18.02
2023-01-13T10:29:57.521Z,17.33
2023-01-13T10:33:06.673Z,17.80
2023-01-13T10:36:15.127Z,13.30
2023-01-13T10:39:17.698Z,18.17
2023-01-13T10:42:24.157Z,21.85
2023-01-13T10:45:26.522Z,19.47
2023-01-13T10:48:37.377Z,19.27
2023-01-13T10:51:40.216Z,13.63
2023-01-13T10:54:52.340Z,15.80
2023-01-13T10:57:54.819Z,18.67
2023-01-13T11:01:07.410Z,15.03
2023-01-13T11:04:31.343Z,20.45
2023-01-13T11:07:35.182Z,24.25
2023-01-13T11:10:48.662Z,24.65
2023-01-13T11:14:12.752Z,17.77
2023-01-13T11:17:31.334Z,14.73
2023-01-13T11:20:38.486Z,26.63
2023-01-13T11:23:48.689Z,23.17
2023-01-13T11:27:02.128Z,17.58
2023-01-13T11:30:29.703Z,19.95
2023-01-13T11:33:40.411Z,17.57
2023-01-13T11:36:50.767Z,26.98
2023-01-13T11:40:18.771Z,16.65
2023-01-13T11:43:32.516Z,19.13
2023-01-13T11:46:34.961Z,24.38
2023-01-13T11:49:39.964Z,25.90
2023-01-13T11:52:49.409Z,17.10
2023-01-13T11:56:20.101Z,24.77
2023-01-13T11:59:57.769Z,20.70
2023-01-13T12:03:09.147Z,16.92
2023-01-13T12:06:17.542Z,19.97
2023-01-13T12:09:40.334Z,29.30
2023-01-13T12:13:18.771Z,20.55
2023-01-13T12:16:26.426Z,24.10
2023-01-13T12:19:32.508Z,22.13
2023-01-13T12:22:37.281Z,23.53
2023-01-13T12:25:50.338Z,20.80
2023-01-13T12:29:07.227Z,24.52
2023-01-13T12:32:19.089Z,21.40
2023-01-13T12:35:44.475Z,21.58
2023-01-13T12:38:53.271Z,25.83
2023-01-13T12:42:54.473Z,32.70
2023-01-13T12:46:20.885Z,28.42
2023-01-13T12:49:31.594Z,21.13
2023-01-13T12:52:44.297Z,27.00
2023-01-13T12:55:52.147Z,24.73
2023-01-13T12:59:17.223Z,21.92
2023-01-13T13:02:27.597Z,24.42
2023-01-13T13:05:54.843Z,23.55
2023-01-13T13:09:06.385Z,27.58
2023-01-13T13:12:49.080Z,29.17
2023-01-13T13:16:07.713Z,29.35
2023-01-13T13:19:18.675Z,25.88
2023-01-13T13:22:28.281Z,26.73
2023-01-13T13:25:30.857Z,33.88
2023-01-13T13:28:38.179Z,21.43
2023-01-13T13:32:02.184Z,21.60
2023-01-13T13:35:35.313Z,30.20
2023-01-13T13:39:27.534Z,19.75
2023-01-13T13:42:58.575Z,28.15
2023-01-13T13:46:21.190Z,30.97
2023-01-13T13:49:46.680Z,30.80
2023-01-13T13:52:59.082Z,31.30
2023-01-13T13:56:03.703Z,27.65
2023-01-13T13:59:11.215Z,30.42
2023-01-13T14:02:20.068Z,29.03
2023-01-13T14:05:28.453Z,32.38
2023-01-13T14:08:35.729Z,30.58
2023-01-13T14:11:37.967Z,23.27
2023-01-13T14:14:43.962Z,26.65
2023-01-13T14:17:46.329Z,29.10
2023-01-13T14:21:18.538Z,27.42
2023-01-13T14:24:22.571Z,26.83
2023-01-13T14:27:30.134Z,24.00
2023-01-13T14:30:33.008Z,18.15
2023-01-13T14:33:40.660Z,29.37
2023-01-13T14:36:51.025Z,16.85
2023-01-13T14:39:53.543Z,30.17
2023-01-13T14:43:15.855Z,25.88
2023-01-13T14:46:19.341Z,31.42
2023-01-13T14:49:28.546Z,27.93
2023-01-13T14:52:34.437Z,29.98
2023-01-13T14:55:40.830Z,27.98
2023-01-13T14:58:43.078Z,21.73
2023-01-13T15:01:47.658Z,24.10
2023-01-13T15:04:53.921Z,30.63
2023-01-13T15:08:01.345Z,25.40
2023-01-13T15:11:08.427Z,28.95
2023-01-13T15:14:11.502Z,28.42
2023-01-13T15:17:16.738Z,30.15
2023-01-13T15:20:22.160Z,17.90
2023-01-13T15:23:24.511Z,26.63
2023-01-13T15:26:29.155Z,26.85
2023-01-13T15:29:31.445Z,20.98
2023-01-13T15:32:38.243Z,28.75
2023-01-13T15:35:44.263Z,22.40
2023-01-13T15:38:46.544Z,19.63
2023-01-13T15:42:07.629Z,27.48
2023-01-13T15:45:31.350Z,20.40
2023-01-13T15:48:34.012Z,22.80
2023-01-13T15:51:39.013Z,22.13
2023-01-13T15:54:41.260Z,35.05
2023-01-13T15:57:49.758Z,32.17
2023-01-13T16:00:52.069Z,19.85
2023-01-13T16:03:57.041Z,27.17
2023-01-13T16:06:59.525Z,32.13
2023-01-13T16:10:05.130Z,21.25
2023-01-13T16:13:07.535Z,25.23
2023-01-13T16:16:19.011Z,33.30
2023-01-13T16:19:24.478Z,31.55
2023-01-13T16:22:26.877Z,44.07
2023-01-13T16:25:29.284Z,36.25
2023-01-13T16:28:31.754Z,22.15
2023-01-13T16:31:34.654Z,27.75
2023-01-13T16:34:37.265Z,25.25
2023-01-13T16:37:45.347Z,19.97
2023-01-13T16:40:48.160Z,19.70
2023-01-13T16:43:50.635Z,29.48
2023-01-13T16:46:52.908Z,30.45
2023-01-13T16:49:55.198Z,33.30
2023-01-13T16:52:58.653Z,30.50
2023-01-13T16:56:00.927Z,25.92
2023-01-13T16:59:09.317Z,27.27
2023-01-13T17:02:15.555Z,25.85
2023-01-13T17:05:18.017Z,29.85
2023-01-13T17:08:20.316Z,31.47
2023-01-13T17:11:22.593Z,29.92
2023-01-13T17:14:26.025Z,39.90
2023-01-13T17:17:30.913Z,37.55
2023-01-13T17:20:33.235Z,34.30
2023-01-13T17:23:35.507Z,33.27
2023-01-13T17:26:44.078Z,33.75
2023-01-13T17:29:46.381Z,38.22
2023-01-13T17:32:48.725Z,32.22
2023-01-13T17:35:51.032Z,41.55
2023-01-13T17:38:54.826Z,33.83
2023-01-13T17:41:57.123Z,38.35
2023-01-13T17:44:59.423Z,34.28
2023-01-13T17:48:01.943Z,35.50
2023-01-13T17:51:07.363Z,34.60
2023-01-13T17:54:12.795Z,37.30
2023-01-13T17:57:15.123Z,43.47
2023-01-13T18:00:17.719Z,36.08
2023-01-13T18:03:19.989Z,34.30
2023-01-13T18:06:25.653Z,35.05
2023-01-13T18:09:28.008Z,73.40
2023-01-13T18:12:30.351Z,47.40
2023-01-13T18:15:33.924Z,39.05
2023-01-13T18:18:36.297Z,35.88
2023-01-13T18:21:57.374Z,38.85
2023-01-13T18:25:18.952Z,33.20
2023-01-13T18:28:21.669Z,32.13
2023-01-13T18:31:24.813Z,27.38
2023-01-13T18:34:27.262Z,32.17
2023-01-13T18:37:29.555Z,36.85
2023-01-13T18:40:31.831Z,35.13
2023-01-13T18:43:34.142Z,44.70
2023-01-13T18:46:36.556Z,46.47
2023-01-13T18:49:38.928Z,38.42
2023-01-13T18:52:43.899Z,39.40
2023-01-13T18:55:50.042Z,29.37
2023-01-13T18:58:53.385Z,31.90
2023-01-13T19:01:55.715Z,33.63
2023-01-13T19:04:58.107Z,29.52
2023-01-13T19:08:01.121Z,31.02
2023-01-13T19:11:05.511Z,32.37
2023-01-13T19:14:07.836Z,30.90
2023-01-13T19:17:12.936Z,29.77
2023-01-13T19:20:15.569Z,33.05
2023-01-13T19:23:18.000Z,35.75
2023-01-13T19:26:20.576Z,35.83
2023-01-13T19:29:22.958Z,29.85
2023-01-13T19:32:25.326Z,33.67
2023-01-13T19:35:27.634Z,32.45
2023-01-13T19:38:30.184Z,36.67
2023-01-13T19:41:50.643Z,35.60
2023-01-13T19:45:13.800Z,33.53
2023-01-13T19:48:19.051Z,32.63
2023-01-13T19:51:21.247Z,31.33
2023-01-13T19:54:23.618Z,35.53
2023-01-13T19:57:28.665Z,34.03
2023-01-13T20:00:31.263Z,35.40
2023-01-13T20:03:37.688Z,33.90
2023-01-13T20:06:46.483Z,35.30
2023-01-13T20:09:48.831Z,25.02
2023-01-13T20:12:51.336Z,31.67
2023-01-13T20:15:53.626Z,30.38
2023-01-13T20:18:56.665Z,33.65
2023-01-13T20:21:59.205Z,31.75
2023-01-13T20:25:01.546Z,28.10
2023-01-13T20:28:04.380Z,26.27
2023-01-13T20:31:08.517Z,24.08
2023-01-13T20:34:10.865Z,30.67
2023-01-13T20:37:15.574Z,32.60
2023-01-13T20:40:21.338Z,35.90
2023-01-13T20:43:23.685Z,39.03
2023-01-13T20:46:26.024Z,39.88
2023-01-13T20:49:30.397Z,43.85
2023-01-13T20:52:36.967Z,38.30
2023-01-13T20:55:40.235Z,41.20
2023-01-13T20:58:44.034Z,41.13
2023-01-13T21:01:46.408Z,51.13
2023-01-13T21:04:48.946Z,40.65
2023-01-13T21:07:54.495Z,36.92
2023-01-13T21:11:04.962Z,36.78
2023-01-13T21:14:35.828Z,33.13
2023-01-13T21:17:56.730Z,29.73
2023-01-13T21:21:11.990Z,31.38
2023-01-13T21:24:14.355Z,33.92
2023-01-13T21:27:16.950Z,29.08
2023-01-13T21:30:19.288Z,23.67
2023-01-13T21:33:22.451Z,24.00
2023-01-13T21:36:26.988Z,24.15
2023-01-13T21:39:29.461Z,36.17
2023-01-13T21:42:50.379Z,38.78
2023-01-13T21:46:11.114Z,38.87
2023-01-13T21:49:13.425Z,37.83
2023-01-13T21:52:18.831Z,32.50
2023-01-13T21:55:29.931Z,28.20
2023-01-13T21:58:33.372Z,34.65
2023-01-13T22:01:35.706Z,48.23
2023-01-13T22:04:41.082Z,47.13
2023-01-13T22:07:46.039Z,45.97
2023-01-13T22:11:10.141Z,46.92
2023-01-13T22:14:14.015Z,49.42
2023-01-13T22:17:17.462Z,49.80
2023-01-13T22:20:20.310Z,50.50
2023-01-13T22:23:25.333Z,46.63
2023-01-13T22:26:27.868Z,55.47
2023-01-13T22:29:30.144Z,49.05
2023-01-13T22:32:35.665Z,49.67
2023-01-13T22:35:39.629Z,47.75
2023-01-13T22:38:41.894Z,48.58
2023-01-13T22:41:44.155Z,52.20
2023-01-13T22:44:46.368Z,55.08
2023-01-13T22:47:51.556Z,54.13
2023-01-13T22:50:54.020Z,50.90
2023-01-13T22:53:58.730Z,44.53
2023-01-13T22:57:02.552Z,36.00
2023-01-13T23:00:07.932Z,43.60
2023-01-13T23:03:10.261Z,45.27
2023-01-13T23:06:13.087Z,37.33
2023-01-13T23:09:15.598Z,28.17
2023-01-13T23:12:17.898Z,27.35
2023-01-13T23:15:20.487Z,31.98
2023-01-13T23:18:26.298Z,43.00
2023-01-13T23:21:31.159Z,41.33
2023-01-13T23:24:33.494Z,49.22
2023-01-13T23:27:36.482Z,46.30
2023-01-13T23:30:40.091Z,41.53
2023-01-13T23:33:43.591Z,49.03
2023-01-13T23:36:48.784Z,45.13
2023-01-13T23:39:51.057Z,42.72
2023-01-13T23:42:53.400Z,38.88
2023-01-13T23:46:25.716Z,43.67
2023-01-13T23:49:28.165Z,45.50
2023-01-13T23:52:30.437Z,45.70
2023-01-13T23:55:33.026Z,43.78
2023-01-13T23:58:38.449Z,40.72
